Saint-Prime, Canada
Current Conditions -  °F | °C
As of 10:00 PM on Friday 28 Nov 2014 (Local Time) from CYRJ Reporting Station
Few Clouds Few Clouds  
Wind Chill: -10°   Ceiling: Unl
Heat Index:   Visibility: 25mi
Dew Point: -2°   Wind: 6mph
Humidity: 85%   Direction: 260°W
Pressure: 30.12"   Gusts: NA
Location:  48.6°N, 72.33°W
Report Text: CYRJ 290300Z 26005KT 25SM FEW030 M17/M19 A3012 RMK SC1 SC TR SLP216
Loading
Personal Weather Stations






























Interactive Weather Map New forecast layout! Learn more

10-Day Weather Forecast

Advertisements
Track Severe Weather on mobile